Time;durP1;ratioP1;P1;durP2;ratioP2;P2;SDS_P1;SDS_P2;PMS_P1;PMS_P2;Temp;Humidity;BMP_temperature;BMP_pressure;BME280_temperature;BME280_humidity;BME280_pressure;Samples;Min_cycle;Max_cycle;Signal;HPM_P1;HPM_P2
2023/08/23 00:01:52;;;;;;;11.00;5.15;;;;;;;15.57;98.12;98848.34;5021753;28;20416;-41
2023/08/23 00:04:21;;;;;;;8.20;5.47;;;;;;;15.40;98.39;98827.66;5024156;28;20111;-43
2023/08/23 00:06:47;;;;;;;10.57;5.30;;;;;;;15.51;98.58;98851.38;5023393;28;20049;-43
2023/08/23 00:09:13;;;;;;;9.10;5.55;;;;;;;15.49;98.54;98850.63;5025780;28;20134;-42
2023/08/23 00:11:39;;;;;;;9.48;4.90;;;;;;;15.30;98.70;98818.75;5008349;28;20505;-43
2023/08/23 00:14:05;;;;;;;12.05;5.47;;;;;;;15.40;98.56;98840.75;5029963;28;20044;-45
2023/08/23 00:16:31;;;;;;;8.32;5.10;;;;;;;15.43;98.81;98840.56;5009118;28;20038;-42
2023/08/23 00:18:57;;;;;;;6.82;4.40;;;;;;;15.35;99.00;98824.53;5024054;28;20099;-43
2023/08/23 00:21:23;;;;;;;7.35;4.60;;;;;;;15.46;98.81;98845.59;5026568;28;20037;-42
2023/08/23 00:23:49;;;;;;;7.88;4.68;;;;;;;15.38;98.79;98820.88;5017951;28;20042;-41
2023/08/23 00:26:15;;;;;;;7.95;4.75;;;;;;;15.59;98.69;98843.88;5020519;28;20574;-42
2023/08/23 00:28:42;;;;;;;6.88;4.63;;;;;;;15.67;98.21;98841.53;5018287;28;20485;-41
2023/08/23 00:31:08;;;;;;;6.85;4.78;;;;;;;15.69;97.68;98846.69;5020406;28;20026;-42
2023/08/23 00:33:35;;;;;;;8.80;5.13;;;;;;;15.73;97.43;98839.44;5018192;28;20041;-42
2023/08/23 00:36:02;;;;;;;7.90;4.68;;;;;;;15.75;97.25;98850.69;5023302;28;20052;-43
2023/08/23 00:38:28;;;;;;;8.13;5.43;;;;;;;15.77;97.01;98849.63;5025326;28;20037;-42
2023/08/23 00:40:54;;;;;;;7.22;4.82;;;;;;;15.77;96.98;98846.16;5024823;28;20060;-42
2023/08/23 00:43:20;;;;;;;7.63;4.72;;;;;;;15.61;96.87;98813.13;5028981;28;20041;-43
2023/08/23 00:45:46;;;;;;;8.23;5.22;;;;;;;15.76;96.73;98840.06;5018689;28;20046;-44
2023/08/23 00:48:12;;;;;;;7.20;4.95;;;;;;;15.58;96.87;98808.13;5014596;28;20087;-43
2023/08/23 00:50:40;;;;;;;8.70;5.03;;;;;;;15.71;96.81;98843.94;5028393;28;20038;-41
2023/08/23 00:53:11;;;;;;;8.57;5.43;;;;;;;15.49;97.07;98808.69;5024540;28;20061;-42
2023/08/23 00:55:37;;;;;;;10.32;5.00;;;;;;;15.60;97.17;98832.41;5010962;28;20041;-40
2023/08/23 00:58:04;;;;;;;7.50;4.95;;;;;;;15.59;97.13;98832.53;5025512;28;20136;-45
2023/08/23 01:00:31;;;;;;;12.85;5.15;;;;;;;15.55;97.70;98839.75;4989880;28;20049;-42
2023/08/23 01:02:57;;;;;;;10.82;5.50;;;;;;;15.52;97.82;98834.75;5025372;28;20061;-43
2023/08/23 01:05:30;;;;;;;12.90;5.95;;;;;;;15.32;97.68;98795.09;5026527;28;20103;-43
2023/08/23 01:08:01;;;;;;;11.15;5.80;;;;;;;15.48;97.78;98822.75;5020508;28;20041;-45
2023/08/23 01:10:45;;;;;;;10.07;5.07;;;;;;;15.46;98.16;98831.66;5026582;28;20076;-43
2023/08/23 01:13:28;;;;;;;12.77;5.70;;;;;;;15.44;98.12;98829.13;5047738;28;20029;-45
2023/08/23 01:15:54;;;;;;;10.57;4.90;;;;;;;15.42;98.32;98835.44;5004994;28;20033;-43
2023/08/23 01:18:21;;;;;;;8.63;5.35;;;;;;;15.36;98.84;98826.19;5007942;28;20045;-44
2023/08/23 01:20:52;;;;;;;10.43;5.28;;;;;;;15.35;99.12;98832.38;5022149;28;20570;-42
2023/08/23 01:23:18;;;;;;;8.38;5.53;;;;;;;15.34;99.14;98829.84;5024269;28;20433;-45
2023/08/23 01:25:51;;;;;;;10.93;5.57;;;;;;;15.32;99.32;98831.75;5055804;28;20075;-42
2023/08/23 01:28:19;;;;;;;8.38;5.80;;;;;;;15.33;99.41;98833.44;5026538;28;20060;-42
2023/08/23 01:30:47;;;;;;;10.18;5.60;;;;;;;15.28;99.78;98829.31;5010531;28;20037;-43
2023/08/23 01:33:28;;;;;;;8.10;5.55;;;;;;;15.31;99.52;98825.66;5005898;28;20117;-42
2023/08/23 01:36:03;;;;;;;11.00;5.40;;;;;;;15.16;99.70;98801.38;5032385;28;20056;-42
2023/08/23 01:38:30;;;;;;;9.88;5.75;;;;;;;15.27;99.90;98824.22;5008085;28;20041;-42
2023/08/23 01:40:56;;;;;;;10.45;5.38;;;;;;;15.03;100.00;98779.53;5022191;28;20104;-42
2023/08/23 01:43:23;;;;;;;8.60;5.40;;;;;;;15.23;100.00;98813.09;5002819;28;20505;-41
2023/08/23 01:45:49;;;;;;;9.45;5.63;;;;;;;15.24;100.00;98820.00;5027014;28;20072;-42
2023/08/23 01:48:15;;;;;;;8.85;4.90;;;;;;;15.24;100.00;98822.63;5022136;28;20169;-42
2023/08/23 01:50:41;;;;;;;11.88;5.32;;;;;;;15.00;100.00;98782.38;5020691;28;20037;-41
2023/08/23 01:53:07;;;;;;;8.43;6.55;;;;;;;15.22;100.00;98815.81;5010577;28;20038;-42
2023/08/23 01:55:33;;;;;;;9.98;6.07;;;;;;;15.28;100.00;98826.72;5019350;28;20038;-43
2023/08/23 01:57:59;;;;;;;8.70;5.50;;;;;;;15.28;100.00;98818.03;5022721;28;20045;-42
2023/08/23 02:00:25;;;;;;;7.82;5.25;;;;;;;15.29;100.00;98817.06;5025595;28;20041;-43
2023/08/23 02:02:53;;;;;;;9.20;5.18;;;;;;;15.05;100.00;98775.06;5020298;28;20037;-41
2023/08/23 02:05:19;;;;;;;11.23;5.95;;;;;;;15.07;100.00;98799.34;5025915;28;20057;-43
2023/08/23 02:07:46;;;;;;;13.82;5.78;;;;;;;15.23;100.00;98828.78;5024875;28;20067;-40
2023/08/23 02:10:12;;;;;;;9.32;6.05;;;;;;;15.10;100.00;98832.34;5020171;28;20079;-43
2023/08/23 02:12:40;;;;;;;7.40;5.32;;;;;;;15.01;100.00;98833.81;5010340;28;20115;-42
2023/08/23 02:15:07;;;;;;;14.38;6.13;;;;;;;14.97;100.00;98827.06;5009796;28;20033;-41
2023/08/23 02:17:34;;;;;;;9.63;6.03;;;;;;;14.95;100.00;98836.81;5006217;28;20399;-43
2023/08/23 02:20:00;;;;;;;14.20;6.90;;;;;;;14.73;100.00;98805.13;5024518;28;20046;-43
2023/08/23 02:22:26;;;;;;;12.02;6.43;;;;;;;14.83;100.00;98837.59;5024588;28;20052;-44
2023/08/23 02:24:52;;;;;;;10.95;6.43;;;;;;;14.83;100.00;98840.22;5024756;28;20126;-42
2023/08/23 02:27:18;;;;;;;10.85;6.55;;;;;;;14.79;100.00;98838.75;5002117;28;20525;-42
2023/08/23 02:29:44;;;;;;;10.73;7.18;;;;;;;14.78;100.00;98830.06;5024941;28;20061;-42
2023/08/23 02:32:09;;;;;;;11.63;6.65;;;;;;;14.80;100.00;98838.66;5025553;28;20544;-43
2023/08/23 02:34:35;;;;;;;11.52;6.82;;;;;;;14.87;100.00;98841.69;5014901;28;20088;-45
2023/08/23 02:37:01;;;;;;;13.30;7.50;;;;;;;14.92;100.00;98834.38;4990013;28;20045;-41
2023/08/23 02:39:27;;;;;;;12.23;6.70;;;;;;;15.01;100.00;98836.41;5006446;28;20053;-41
2023/08/23 02:41:53;;;;;;;11.40;6.90;;;;;;;15.10;100.00;98822.72;4987106;28;20041;-40
2023/08/23 02:44:20;;;;;;;9.38;6.35;;;;;;;15.04;100.00;98811.81;5026779;28;20128;-41
2023/08/23 02:46:45;;;;;;;12.63;7.10;;;;;;;15.23;100.00;98826.16;5026099;28;20132;-40
2023/08/23 02:49:12;;;;;;;15.52;6.53;;;;;;;15.25;100.00;98832.16;5009182;28;20409;-42
2023/08/23 02:51:37;;;;;;;10.10;6.70;;;;;;;15.30;100.00;98825.78;5025335;28;20579;-41
2023/08/23 02:54:04;;;;;;;10.60;6.75;;;;;;;15.35;100.00;98828.91;5026196;28;20052;-42
2023/08/23 02:56:29;;;;;;;11.90;6.72;;;;;;;15.39;100.00;98825.97;5025799;28;20079;-42
2023/08/23 02:58:55;;;;;;;17.75;7.38;;;;;;;15.42;100.00;98819.72;5025527;28;20079;-46
2023/08/23 03:01:21;;;;;;;9.20;6.90;;;;;;;15.45;100.00;98825.56;5030446;28;20094;-45
2023/08/23 03:03:47;;;;;;;12.40;7.20;;;;;;;15.33;100.00;98807.25;5014941;28;20037;-42
2023/08/23 03:06:13;;;;;;;10.95;6.75;;;;;;;15.50;100.00;98820.84;5031620;28;20034;-43
2023/08/23 03:08:39;;;;;;;14.63;7.28;;;;;;;15.55;100.00;98831.06;5008775;28;20056;-41
2023/08/23 03:11:06;;;;;;;11.75;6.88;;;;;;;15.59;100.00;98824.69;5029330;28;20079;-41
2023/08/23 03:13:33;;;;;;;12.77;7.35;;;;;;;15.61;100.00;98828.88;5008876;28;20153;-41
2023/08/23 03:16:00;;;;;;;14.68;6.78;;;;;;;15.70;100.00;98827.41;5007260;28;20517;-42
2023/08/23 03:18:27;;;;;;;13.13;7.22;;;;;;;15.52;100.00;98779.72;5021846;28;20049;-44
2023/08/23 03:20:53;;;;;;;14.15;7.68;;;;;;;15.95;100.00;98835.25;5024589;28;20042;-42
2023/08/23 03:23:19;;;;;;;20.23;9.93;;;;;;;16.08;100.00;98819.47;4992556;28;20461;-43
2023/08/23 03:25:48;;;;;;;10.85;8.07;;;;;;;16.22;100.00;98821.97;5023478;28;20041;-41
2023/08/23 03:28:15;;;;;;;16.65;9.00;;;;;;;16.31;99.33;98816.06;5022208;28;20045;-42
2023/08/23 03:30:41;;;;;;;23.45;9.10;;;;;;;16.46;98.73;98825.47;5037245;28;20045;-41
2023/08/23 03:33:07;;;;;;;14.25;8.25;;;;;;;16.55;97.86;98823.94;5005492;28;20044;-42
2023/08/23 03:35:34;;;;;;;14.50;8.60;;;;;;;16.68;96.69;98827.41;5021927;28;20038;-43
2023/08/23 03:38:03;;;;;;;12.38;7.53;;;;;;;16.67;95.99;98823.09;5024931;28;20160;-40
2023/08/23 03:40:34;;;;;;;13.48;6.97;;;;;;;16.51;94.82;98798.88;5006492;28;20045;-46
2023/08/23 03:43:00;;;;;;;11.52;6.95;;;;;;;16.66;94.75;98821.41;4990116;28;20068;-41
2023/08/23 03:45:26;;;;;;;15.82;7.95;;;;;;;16.73;94.49;98813.94;5020701;28;20509;-42
2023/08/23 03:47:52;;;;;;;13.02;7.68;;;;;;;16.74;93.65;98815.63;5026194;28;20462;-41
2023/08/23 03:50:17;;;;;;;9.45;7.05;;;;;;;16.69;93.61;98804.63;4994709;28;20049;-42
2023/08/23 03:52:44;;;;;;;16.38;7.18;;;;;;;16.85;93.40;98807.81;5012293;28;20033;-40
2023/08/23 03:55:10;;;;;;;17.90;7.38;;;;;;;16.96;92.52;98805.19;5029076;28;20418;-44
2023/08/23 03:57:35;;;;;;;14.20;6.47;;;;;;;17.10;91.81;98810.28;5025434;28;20057;-42
2023/08/23 04:00:01;;;;;;;13.00;7.32;;;;;;;17.23;90.86;98818.91;5029933;28;20045;-43
2023/08/23 04:02:31;;;;;;;12.93;7.40;;;;;;;17.25;90.17;98810.91;5027479;28;20037;-42
2023/08/23 04:05:02;;;;;;;12.00;6.60;;;;;;;17.32;89.65;98815.56;5023925;28;20058;-48
2023/08/23 04:07:29;;;;;;;16.75;7.88;;;;;;;17.33;89.03;98817.25;5004450;28;20038;-47
2023/08/23 04:09:56;;;;;;;11.07;6.03;;;;;;;17.28;88.40;98797.53;5026582;28;20115;-48
2023/08/23 04:12:22;;;;;;;11.70;6.00;;;;;;;17.35;88.29;98828.50;5025376;28;20042;-47
2023/08/23 04:14:48;;;;;;;11.20;5.70;;;;;;;17.49;87.78;98822.19;5023988;28;20049;-49
2023/08/23 04:17:14;;;;;;;10.75;6.00;;;;;;;17.56;87.47;98820.75;5029881;28;20041;-43
2023/08/23 04:19:40;;;;;;;11.40;5.75;;;;;;;17.43;86.59;98774.53;5023388;28;20052;-42
2023/08/23 04:22:06;;;;;;;9.50;6.07;;;;;;;17.71;86.79;98821.41;5029429;28;20084;-43
2023/08/23 04:24:32;;;;;;;10.20;5.68;;;;;;;17.83;86.39;98814.34;5029338;28;20123;-41
2023/08/23 04:26:58;;;;;;;8.02;4.88;;;;;;;17.82;85.88;98813.53;5028491;28;20111;-42
2023/08/23 04:29:23;;;;;;;8.57;5.35;;;;;;;18.00;85.50;98808.63;5024760;28;20089;-42
2023/08/23 04:31:49;;;;;;;9.90;5.30;;;;;;;17.94;84.85;98780.19;4996007;28;20433;-43
2023/08/23 04:34:25;;;;;;;7.40;4.82;;;;;;;18.19;84.54;98804.41;5007548;28;20057;-41
2023/08/23 04:36:51;;;;;;;9.23;5.47;;;;;;;18.09;84.26;98795.59;5027793;28;20041;-42
2023/08/23 04:39:17;;;;;;;6.45;4.88;;;;;;;17.92;84.50;98774.19;5011106;28;20037;-42
2023/08/23 04:41:44;;;;;;;8.68;4.93;;;;;;;18.16;84.45;98799.38;5010011;28;20076;-43
2023/08/23 04:44:10;;;;;;;9.18;5.07;;;;;;;18.28;83.99;98805.47;5005841;28;20041;-43
2023/08/23 04:46:35;;;;;;;10.65;4.78;;;;;;;18.38;83.70;98795.88;5010416;28;20053;-42
2023/08/23 04:49:01;;;;;;;8.68;4.95;;;;;;;18.42;83.21;98807.00;5025672;28;20042;-44
2023/08/23 04:51:28;;;;;;;7.63;5.18;;;;;;;18.49;82.89;98802.91;5024234;28;20041;-44
2023/08/23 04:53:53;;;;;;;8.02;4.70;;;;;;;18.45;82.62;98804.13;5028856;28;20104;-45
2023/08/23 04:56:19;;;;;;;7.80;4.20;;;;;;;18.51;82.30;98801.84;5029617;28;20041;-42
2023/08/23 04:58:45;;;;;;;7.07;4.30;;;;;;;18.19;81.86;98753.59;5028019;28;20037;-42
2023/08/23 05:01:11;;;;;;;8.00;4.47;;;;;;;18.58;81.74;98807.47;5022320;28;20049;-43
2023/08/23 05:03:41;;;;;;;6.03;4.22;;;;;;;18.62;80.87;98774.69;5027764;28;20045;-43
2023/08/23 05:06:07;;;;;;;8.38;4.60;;;;;;;18.86;80.23;98798.16;5012116;28;20049;-44
2023/08/23 05:08:34;;;;;;;7.57;4.72;;;;;;;19.05;79.59;98806.22;5012303;28;20082;-45
2023/08/23 05:11:05;;;;;;;7.00;4.88;;;;;;;19.04;78.87;98807.19;5032856;28;20037;-43
2023/08/23 05:13:31;;;;;;;9.18;4.88;;;;;;;18.92;78.84;98809.03;5027018;28;20096;-44
2023/08/23 05:15:57;;;;;;;6.82;5.15;;;;;;;18.60;78.49;98753.72;5027219;28;20167;-42
2023/08/23 05:18:24;;;;;;;6.85;4.55;;;;;;;19.01;78.45;98799.50;5027237;28;20083;-42
2023/08/23 05:20:59;;;;;;;5.60;4.45;;;;;;;19.11;77.57;98794.31;5040240;28;20056;-44
2023/08/23 05:23:27;;;;;;;6.22;4.35;;;;;;;19.15;77.00;98791.31;5011249;28;20053;-45
2023/08/23 05:25:54;;;;;;;10.25;4.60;;;;;;;19.32;76.61;98797.78;5002586;28;20041;-43
2023/08/23 05:28:20;;;;;;;8.48;4.13;;;;;;;19.39;76.06;98776.06;5005165;28;20107;-45
2023/08/23 05:30:47;;;;;;;8.63;4.28;;;;;;;19.59;75.01;98798.13;5021199;28;20040;-43
2023/08/23 05:33:17;;;;;;;5.68;3.90;;;;;;;19.67;74.25;98802.75;4995457;28;20063;-44
2023/08/23 05:35:43;;;;;;;8.80;4.40;;;;;;;19.82;73.46;98790.88;5024705;28;20091;-42
2023/08/23 05:38:11;;;;;;;9.60;4.25;;;;;;;19.89;72.89;98792.00;5027759;28;20579;-42
2023/08/23 05:40:38;;;;;;;6.53;3.90;;;;;;;20.00;72.29;98791.91;5020718;28;20053;-44
2023/08/23 05:43:04;;;;;;;3.97;3.58;;;;;;;20.01;72.33;98777.75;5020538;28;20052;-44
2023/08/23 05:45:30;;;;;;;6.85;2.95;;;;;;;20.18;71.10;98803.50;5020922;28;20528;-43
2023/08/23 05:47:56;;;;;;;4.70;3.33;;;;;;;19.86;71.90;98774.66;5009305;28;20047;-45
2023/08/23 05:50:22;;;;;;;5.40;3.58;;;;;;;19.86;71.93;98795.75;5062178;28;20148;-45
2023/08/23 05:52:49;;;;;;;11.43;3.67;;;;;;;19.73;72.49;98797.75;5027122;28;20523;-45
2023/08/23 05:55:15;;;;;;;6.72;3.50;;;;;;;19.85;72.50;98790.59;5013889;28;20045;-42
2023/08/23 05:57:41;;;;;;;7.18;3.35;;;;;;;20.15;71.90;98792.41;5035855;28;20400;-44
2023/08/23 06:00:07;;;;;;;4.25;3.45;;;;;;;20.41;71.39;98798.06;5022904;28;20099;-45
2023/08/23 06:02:39;;;;;;;6.55;4.20;;;;;;;20.38;70.56;98796.50;5028658;28;20048;-41
2023/08/23 06:05:06;;;;;;;5.18;3.08;;;;;;;20.50;70.65;98805.97;5023074;28;20098;-46
2023/08/23 06:07:32;;;;;;;4.50;3.58;;;;;;;20.69;70.11;98792.78;5026644;28;20140;-43
2023/08/23 06:09:58;;;;;;;5.82;3.22;;;;;;;20.44;70.12;98776.63;5028008;28;20139;-42
2023/08/23 06:12:25;;;;;;;4.60;3.42;;;;;;;20.42;70.29;98804.97;5033411;28;20048;-43
2023/08/23 06:14:51;;;;;;;5.32;3.10;;;;;;;20.04;71.30;98809.16;5029846;28;20041;-44
2023/08/23 06:17:17;;;;;;;4.28;3.80;;;;;;;19.80;72.96;98798.09;5029303;28;20041;-45
2023/08/23 06:19:43;;;;;;;7.82;4.10;;;;;;;19.85;73.62;98809.06;5019577;28;20556;-43
2023/08/23 06:22:09;;;;;;;5.88;3.47;;;;;;;19.79;74.34;98805.16;5025593;28;20068;-42
2023/08/23 06:24:35;;;;;;;5.72;3.50;;;;;;;19.88;74.58;98807.03;5026661;28;20587;-45
2023/08/23 06:27:02;;;;;;;9.07;3.95;;;;;;;19.83;74.52;98792.56;5028081;28;20051;-43
2023/08/23 06:29:28;;;;;;;6.50;3.65;;;;;;;19.87;75.29;98802.72;5024628;28;20107;-45
2023/08/23 06:31:54;;;;;;;7.72;4.18;;;;;;;20.11;74.68;98805.00;5021356;28;20131;-45
2023/08/23 06:34:20;;;;;;;6.60;3.97;;;;;;;20.11;73.87;98783.91;5021471;28;20136;-45
2023/08/23 06:36:46;;;;;;;4.68;3.80;;;;;;;20.59;73.25;98802.50;5025908;28;20572;-49
2023/08/23 06:39:13;;;;;;;5.90;3.90;;;;;;;21.10;70.96;98780.25;5027442;28;20045;-44
2023/08/23 06:41:39;;;;;;;5.97;3.90;;;;;;;21.68;68.06;98803.97;5022073;28;20038;-42
2023/08/23 06:44:05;;;;;;;5.15;3.80;;;;;;;22.02;66.99;98789.25;5027371;28;20483;-44
2023/08/23 06:46:31;;;;;;;6.43;4.25;;;;;;;22.29;65.30;98797.19;5026431;28;20041;-45
2023/08/23 06:48:56;;;;;;;6.25;3.88;;;;;;;22.00;64.68;98799.13;4990475;28;20045;-45
2023/08/23 06:51:23;;;;;;;6.72;3.90;;;;;;;21.75;64.53;98799.78;5023233;28;20041;-44
2023/08/23 06:53:51;;;;;;;5.68;4.05;;;;;;;21.43;64.87;98786.91;5026786;28;20436;-46
2023/08/23 06:56:17;;;;;;;5.93;4.05;;;;;;;20.81;66.31;98753.03;5025702;28;20571;-43
2023/08/23 06:58:43;;;;;;;7.03;4.13;;;;;;;21.02;66.80;98793.34;5027316;28;20068;-46
2023/08/23 07:01:14;;;;;;;7.95;3.83;;;;;;;20.88;66.94;98785.84;5013283;28;20100;-42
2023/08/23 07:03:41;;;;;;;8.60;3.95;;;;;;;20.80;67.33;98798.91;5018901;28;20045;-41
2023/08/23 07:06:07;;;;;;;7.97;4.15;;;;;;;20.75;67.16;98791.41;5012637;28;20124;-47
2023/08/23 07:08:33;;;;;;;8.98;3.38;;;;;;;20.59;67.47;98785.81;5019345;28;20049;-45
2023/08/23 07:11:00;;;;;;;6.95;3.50;;;;;;;20.14;68.56;98759.88;5029353;28;20033;-44
2023/08/23 07:13:26;;;;;;;8.13;4.50;;;;;;;20.14;70.13;98788.91;5029759;28;20406;-46
2023/08/23 07:15:52;;;;;;;4.55;3.20;;;;;;;19.78;70.60;98753.38;5025521;28;20045;-45
2023/08/23 07:18:18;;;;;;;6.35;3.25;;;;;;;19.88;71.35;98785.09;5021358;28;20041;-45
2023/08/23 07:20:44;;;;;;;3.67;3.08;;;;;;;19.72;72.65;98782.09;5026273;28;20111;-45
2023/08/23 07:23:10;;;;;;;5.60;3.33;;;;;;;19.47;74.99;98796.53;5031661;28;20041;-45
2023/08/23 07:25:36;;;;;;;5.63;4.03;;;;;;;18.49;87.66;98795.00;5023532;28;20053;-47
2023/08/23 07:28:02;;;;;;;5.70;4.40;;;;;;;17.63;96.14;98768.59;5036892;28;20048;-42
2023/08/23 07:30:28;;;;;;;7.25;5.60;;;;;;;17.51;100.00;98793.16;5032857;28;20115;-43
2023/08/23 07:32:55;;;;;;;8.13;4.38;;;;;;;17.23;100.00;98800.50;5030186;28;20045;-46
2023/08/23 07:35:21;;;;;;;8.10;4.38;;;;;;;16.83;100.00;98780.81;5030994;28;20034;-44
2023/08/23 07:37:47;;;;;;;8.38;5.03;;;;;;;16.84;100.00;98800.88;5029653;28;20112;-43
2023/08/23 07:40:12;;;;;;;6.85;5.30;;;;;;;16.75;100.00;98809.41;5011633;28;20125;-43
2023/08/23 07:42:39;;;;;;;7.38;5.10;;;;;;;16.38;100.00;98772.69;5039898;28;20067;-43
2023/08/23 07:45:06;;;;;;;9.50;6.47;;;;;;;16.51;100.00;98806.75;5030025;28;20033;-42
2023/08/23 07:47:32;;;;;;;9.85;6.65;;;;;;;16.57;100.00;98819.44;5038492;28;20045;-46
2023/08/23 07:49:58;;;;;;;8.05;5.78;;;;;;;16.28;100.00;98797.06;5029590;28;20665;-43
2023/08/23 07:52:24;;;;;;;11.77;6.57;;;;;;;16.36;100.00;98823.59;5023363;28;20088;-43
2023/08/23 07:54:50;;;;;;;10.00;5.47;;;;;;;16.35;100.00;98820.16;5059901;28;20037;-43
2023/08/23 07:57:16;;;;;;;7.10;5.30;;;;;;;16.33;100.00;98818.59;5031302;28;20072;-45
2023/08/23 07:59:42;;;;;;;13.25;7.07;;;;;;;16.38;100.00;98819.09;5017815;28;20075;-47
2023/08/23 08:02:08;;;;;;;12.27;7.75;;;;;;;16.62;100.00;98819.13;5011353;28;20090;-43
2023/08/23 08:04:34;;;;;;;10.48;6.45;;;;;;;16.90;100.00;98818.81;5028599;28;20076;-45
2023/08/23 08:07:00;;;;;;;12.77;6.85;;;;;;;16.99;100.00;98822.53;5055759;28;20033;-44
2023/08/23 08:09:26;;;;;;;10.02;6.55;;;;;;;16.95;100.00;98816.66;5028974;28;20560;-45
2023/08/23 08:11:52;;;;;;;9.52;6.65;;;;;;;17.02;100.00;98822.28;5050104;28;20037;-44
2023/08/23 08:14:18;;;;;;;6.53;4.88;;;;;;;17.18;100.00;98796.56;5029141;28;20098;-41
2023/08/23 08:16:44;;;;;;;8.20;5.93;;;;;;;17.10;100.00;98814.69;5030773;28;20595;-42
2023/08/23 08:19:10;;;;;;;9.18;5.45;;;;;;;17.26;100.00;98809.97;5029505;28;20077;-42
2023/08/23 08:21:36;;;;;;;5.82;4.57;;;;;;;17.17;100.00;98819.34;5025122;28;20137;-43
2023/08/23 08:24:03;;;;;;;4.95;3.92;;;;;;;17.14;100.00;98813.50;5029592;28;20132;-45
2023/08/23 08:26:29;;;;;;;7.97;4.55;;;;;;;17.19;100.00;98817.47;5022867;28;20045;-42
2023/08/23 08:28:55;;;;;;;5.03;4.03;;;;;;;17.46;100.00;98811.91;5016457;28;20045;-45
2023/08/23 08:31:20;;;;;;;6.35;4.43;;;;;;;17.62;100.00;98807.19;5025224;28;20033;-43
2023/08/23 08:33:47;;;;;;;6.25;3.78;;;;;;;17.82;100.00;98803.00;5029123;28;20049;-43
2023/08/23 08:36:13;;;;;;;5.35;3.75;;;;;;;17.89;100.00;98804.22;5025338;28;20036;-45
2023/08/23 08:38:39;;;;;;;7.78;4.93;;;;;;;17.75;100.00;98789.50;5028178;28;20049;-43
2023/08/23 08:41:05;;;;;;;7.40;4.05;;;;;;;17.98;100.00;98806.13;5030213;28;20041;-43
2023/08/23 08:43:31;;;;;;;7.07;4.00;;;;;;;18.05;100.00;98807.31;5030306;28;20033;-47
2023/08/23 08:45:58;;;;;;;3.38;2.75;;;;;;;18.18;100.00;98802.75;5028400;28;20072;-44
2023/08/23 08:48:23;;;;;;;6.47;2.95;;;;;;;18.21;100.00;98809.56;5023236;28;20033;-44
2023/08/23 08:50:51;;;;;;;5.95;3.50;;;;;;;18.41;100.00;98802.72;5026701;28;20045;-43
2023/08/23 08:53:18;;;;;;;6.30;3.38;;;;;;;18.56;100.00;98783.91;5024231;28;20041;-43
2023/08/23 08:55:47;;;;;;;5.15;3.30;;;;;;;18.60;100.00;98797.66;5025627;28;20053;-44
2023/08/23 08:58:19;;;;;;;5.85;3.15;;;;;;;18.52;100.00;98795.63;5029106;28;20048;-46
2023/08/23 09:00:49;;;;;;;6.05;3.58;;;;;;;18.88;100.00;98812.03;5006506;28;20079;-48
2023/08/23 09:03:19;;;;;;;4.00;2.92;;;;;;;19.02;100.00;98802.03;5025620;28;20122;-43
2023/08/23 09:05:51;;;;;;;3.97;3.03;;;;;;;19.03;100.00;98758.09;5025752;28;20065;-43
2023/08/23 09:08:17;;;;;;;4.82;3.40;;;;;;;19.52;100.00;98794.34;5024036;28;20033;-43
2023/08/23 09:10:43;;;;;;;6.45;3.85;;;;;;;19.48;100.00;98779.75;5025738;28;20083;-44
2023/08/23 09:13:09;;;;;;;4.90;3.70;;;;;;;19.57;100.00;98799.22;5023792;28;20148;-46
2023/08/23 09:15:35;;;;;;;6.07;3.67;;;;;;;19.50;100.00;98803.34;5009588;28;20156;-45
2023/08/23 09:18:02;;;;;;;7.75;3.72;;;;;;;19.42;100.00;98803.94;5029147;28;20501;-45
2023/08/23 09:20:28;;;;;;;7.22;3.58;;;;;;;19.00;100.00;98755.69;5009090;28;20049;-45
2023/08/23 09:22:54;;;;;;;5.95;3.90;;;;;;;19.10;100.00;98808.47;5021503;28;20056;-46
2023/08/23 09:25:22;;;;;;;5.70;3.63;;;;;;;18.91;100.00;98804.72;5009698;28;20071;-44
2023/08/23 09:27:48;;;;;;;5.43;3.92;;;;;;;19.00;100.00;98803.09;5021590;28;20038;-46
2023/08/23 09:30:14;;;;;;;6.60;4.40;;;;;;;19.37;100.00;98806.97;5020603;28;20131;-42
2023/08/23 09:32:41;;;;;;;13.23;4.22;;;;;;;19.93;100.00;98811.06;5025217;28;20041;-43
2023/08/23 09:35:15;;;;;;;9.45;3.90;;;;;;;20.67;100.00;98815.84;5032840;28;20069;-44
2023/08/23 09:37:43;;;;;;;7.32;3.50;;;;;;;21.26;100.00;98806.97;5027122;28;20044;-43
2023/08/23 09:40:27;;;;;;;7.18;3.08;;;;;;;21.89;100.00;98808.06;5028127;28;20052;-46
2023/08/23 09:42:53;;;;;;;5.50;3.33;;;;;;;22.85;100.00;98801.44;5010495;28;20037;-46
2023/08/23 09:45:24;;;;;;;3.70;2.83;;;;;;;23.39;96.57;98810.19;5016154;28;20443;-50
2023/08/23 09:47:54;;;;;;;3.97;2.42;;;;;;;23.33;93.03;98787.75;5024562;28;20509;-46
2023/08/23 09:50:24;;;;;;;3.30;2.63;;;;;;;23.22;92.26;98799.44;5024629;28;20571;-46
2023/08/23 09:52:53;;;;;;;8.93;2.70;;;;;;;23.18;90.10;98792.78;5007877;28;20034;-44
2023/08/23 09:55:19;;;;;;;;;;;;;;;23.84;91.56;98800.19;5020625;28;20042;-43
2023/08/23 09:57:45;;;;;;;3.55;2.30;;;;;;;24.20;94.90;98789.44;5019804;28;19923;-47
2023/08/23 10:00:11;;;;;;;7.20;2.78;;;;;;;23.81;89.02;98771.31;5000397;28;20091;-44
2023/08/23 10:02:38;;;;;;;5.15;2.60;;;;;;;23.56;81.86;98796.03;5027700;28;20509;-44
2023/08/23 10:05:06;;;;;;;3.65;2.50;;;;;;;22.77;80.13;98790.75;5013544;28;20053;-47
2023/08/23 10:07:34;;;;;;;6.35;3.15;;;;;;;22.20;88.88;98802.53;5025158;28;20048;-50
2023/08/23 10:10:01;;;;;;;5.65;3.40;;;;;;;21.56;94.92;98766.28;5027225;28;20041;-46
2023/08/23 10:12:31;;;;;;;5.30;3.78;;;;;;;21.31;98.76;98774.81;5028584;28;20045;-47
2023/08/23 10:14:58;;;;;;;6.35;2.85;;;;;;;21.22;100.00;98816.19;5026433;28;20049;-46
2023/08/23 10:17:24;;;;;;;5.50;4.00;;;;;;;21.02;100.00;98810.03;5023511;28;20045;-49
2023/08/23 10:19:52;;;;;;;6.53;3.97;;;;;;;20.73;100.00;98803.09;5023314;28;20055;-47
2023/08/23 10:22:18;;;;;;;5.75;4.18;;;;;;;20.61;100.00;98808.50;5015393;28;20038;-49
2023/08/23 10:24:47;;;;;;;4.50;2.38;;;;;;;20.54;100.00;98810.00;5026190;28;20043;-46
2023/08/23 10:27:15;;;;;;;4.15;2.95;;;;;;;20.54;100.00;98819.75;5006212;28;20104;-48
2023/08/23 10:29:41;;;;;;;3.63;2.67;;;;;;;20.48;100.00;98815.00;5027001;28;20546;-44
2023/08/23 10:32:11;;;;;;;2.55;1.85;;;;;;;20.50;100.00;98810.44;5027630;28;20049;-48
2023/08/23 10:34:38;;;;;;;3.67;2.00;;;;;;;20.75;100.00;98799.31;5021075;28;20050;-45
2023/08/23 10:37:18;;;;;;;3.28;1.88;;;;;;;21.16;100.00;98803.53;5015010;28;20049;-43
2023/08/23 10:39:51;;;;;;;3.22;2.00;;;;;;;21.21;100.00;98780.13;5025766;28;20057;-44
2023/08/23 10:42:18;;;;;;;4.30;2.65;;;;;;;21.58;98.92;98811.94;5023020;28;20048;-43
2023/08/23 10:44:56;;;;;;;3.33;2.10;;;;;;;21.62;92.15;98809.81;5022591;28;20469;-46
2023/08/23 10:47:22;;;;;;;3.53;1.98;;;;;;;21.68;92.18;98815.38;5024594;28;20513;-51
2023/08/23 10:49:49;;;;;;;5.07;2.75;;;;;;;21.07;89.91;98770.81;5025808;28;20528;-46
2023/08/23 10:52:15;;;;;;;4.00;2.60;;;;;;;21.30;91.34;98812.84;5022162;28;20069;-45
2023/08/23 10:54:41;;;;;;;6.75;2.70;;;;;;;21.34;92.74;98814.22;5021224;28;20048;-45
2023/08/23 10:57:08;;;;;;;6.57;4.45;;;;;;;21.24;93.87;98816.03;5030308;28;20543;-44
2023/08/23 10:59:34;;;;;;;5.57;2.75;;;;;;;21.06;94.90;98815.88;5025152;28;20037;-44
2023/08/23 11:02:00;;;;;;;3.63;2.92;;;;;;;20.78;96.02;98814.09;5024823;28;20479;-46
2023/08/23 11:04:26;;;;;;;7.53;2.95;;;;;;;20.64;97.73;98805.56;5029380;28;20049;-49
2023/08/23 11:06:52;;;;;;;4.78;2.20;;;;;;;20.43;98.67;98802.22;5027227;28;20049;-47
2023/08/23 11:09:18;;;;;;;2.72;2.10;;;;;;;20.20;97.79;98808.66;5025818;28;20425;-46
2023/08/23 11:11:44;;;;;;;2.60;2.20;;;;;;;20.07;98.10;98803.59;5031370;28;20053;-45
2023/08/23 11:14:10;;;;;;;3.80;2.20;;;;;;;19.98;99.13;98806.22;5004194;28;20042;-45
2023/08/23 11:16:38;;;;;;;3.03;2.20;;;;;;;19.86;100.00;98801.03;5030762;28;20095;-44
2023/08/23 11:19:06;;;;;;;4.18;2.40;;;;;;;19.82;100.00;98804.06;5014593;28;20037;-49
2023/08/23 11:21:33;;;;;;;4.90;2.40;;;;;;;19.59;100.00;98773.56;5029059;28;20049;-44
2023/08/23 11:24:05;;;;;;;5.90;2.30;;;;;;;19.74;100.00;98806.50;5033373;28;20086;-44
2023/08/23 11:26:35;;;;;;;3.25;2.33;;;;;;;19.72;100.00;98800.56;5020710;28;20118;-47